Time;durP1;ratioP1;P1;durP2;ratioP2;P2;SDS_P1;SDS_P2;PMS_P1;PMS_P2;Temp;Humidity;BMP_temperature;BMP_pressure;BME280_temperature;BME280_humidity;BME280_pressure;Samples;Min_cycle;Max_cycle;Signal;HPM_P1;HPM_P2
2022/03/30 00:01:00;;;;;;;28.47;16.03;;;;;;;;;;5037796;28;20187;-66
2022/03/30 00:03:26;;;;;;;26.57;15.23;;;;;;;;;;5055540;28;20289;-66
2022/03/30 00:05:52;;;;;;;25.03;15.90;;;;;;;;;;5037488;28;20553;-65
2022/03/30 00:08:18;;;;;;;26.43;15.27;;;;;;;;;;5037628;28;20182;-66
2022/03/30 00:10:44;;;;;;;30.67;17.43;;;;;;;;;;5037433;28;20269;-66
2022/03/30 00:13:10;;;;;;;25.70;16.60;;;;;;;;;;5055642;28;20186;-66
2022/03/30 00:15:36;;;;;;;30.43;17.87;;;;;;;;;;5055393;28;20195;-65
2022/03/30 00:18:02;;;;;;;29.40;16.47;;;;;;;;;;5055172;28;20175;-65
2022/03/30 00:20:28;;;;;;;26.00;16.33;;;;;;;;;;5055160;28;20304;-66
2022/03/30 00:22:54;;;;;;;30.47;16.63;;;;;;;;;;5055029;28;20237;-67
2022/03/30 00:25:20;;;;;;;27.70;15.77;;;;;;;;;;5054813;28;20206;-66
2022/03/30 00:27:46;;;;;;;26.00;15.97;;;;;;;;;;5037191;28;20178;-65
2022/03/30 00:30:14;;;;;;;27.57;17.17;;;;;;;;;;5055345;28;20181;-63
2022/03/30 00:32:39;;;;;;;23.60;15.07;;;;;;;;;;5055233;28;20612;-63
2022/03/30 00:35:07;;;;;;;29.87;16.07;;;;;;;;;;5054918;28;20202;-65
2022/03/30 00:37:34;;;;;;;27.30;16.67;;;;;;;;;;5054885;28;20598;-65
2022/03/30 00:40:00;;;;;;;31.73;17.07;;;;;;;;;;5054744;28;20186;-65
2022/03/30 00:42:26;;;;;;;24.30;15.87;;;;;;;;;;5054693;28;20199;-63
2022/03/30 00:44:52;;;;;;;29.53;15.43;;;;;;;;;;5054648;28;20202;-63
2022/03/30 00:47:26;;;;;;;30.63;16.60;;;;;;;;;;5054617;28;20542;-63
2022/03/30 00:49:52;;;;;;;37.57;16.77;;;;;;;;;;5054693;28;20173;-65
2022/03/30 00:52:20;;;;;;;29.53;16.87;;;;;;;;;;5054490;28;20190;-66
2022/03/30 00:54:47;;;;;;;27.53;15.83;;;;;;;;;;5054987;28;20236;-63
2022/03/30 00:57:14;;;;;;;26.23;16.13;;;;;;;;;;5054918;28;20231;-64
2022/03/30 00:59:40;;;;;;;29.57;16.70;;;;;;;;;;5054933;28;20308;-64
2022/03/30 01:02:07;;;;;;;30.50;16.43;;;;;;;;;;5054322;28;20654;-63
2022/03/30 01:04:33;;;;;;;28.73;16.93;;;;;;;;;;5054497;28;20202;-64
2022/03/30 01:06:59;;;;;;;28.10;16.47;;;;;;;;;;5054246;28;20194;-63
2022/03/30 01:09:25;;;;;;;27.90;16.47;;;;;;;;;;5036543;28;20185;-65
2022/03/30 01:11:53;;;;;;;35.17;17.77;;;;;;;;;;5054368;28;20209;-63
2022/03/30 01:14:19;;;;;;;32.40;17.87;;;;;;;;;;5054763;28;20657;-63
2022/03/30 01:16:45;;;;;;;28.10;16.37;;;;;;;;;;5036259;28;20198;-64
2022/03/30 01:19:11;;;;;;;30.53;16.97;;;;;;;;;;5054129;28;20666;-65
2022/03/30 01:21:38;;;;;;;29.03;17.40;;;;;;;;;;5054165;28;20721;-66
2022/03/30 01:24:04;;;;;;;29.40;16.87;;;;;;;;;;5053929;28;20288;-66
2022/03/30 01:26:30;;;;;;;26.23;16.60;;;;;;;;;;5053896;28;20220;-64
2022/03/30 01:28:57;;;;;;;27.17;17.37;;;;;;;;;;5036018;28;20174;-64
2022/03/30 01:34:08;;;;;;;30.73;17.60;;;;;;;;;;5054186;28;20548;-64
2022/03/30 01:36:37;;;;;;;31.83;18.10;;;;;;;;;;5053885;28;20198;-64
2022/03/30 01:39:04;;;;;;;30.57;17.53;;;;;;;;;;5053797;28;20208;-64
2022/03/30 01:41:30;;;;;;;30.20;17.03;;;;;;;;;;5053966;28;20178;-64
2022/03/30 01:43:56;;;;;;;33.17;17.53;;;;;;;;;;5035695;28;20206;-64
2022/03/30 01:46:23;;;;;;;27.17;17.03;;;;;;;;;;5053786;28;20204;-64
2022/03/30 01:48:49;;;;;;;28.03;17.03;;;;;;;;;;5035892;28;20553;-64
2022/03/30 01:51:15;;;;;;;30.43;17.80;;;;;;;;;;5053772;28;20185;-64
2022/03/30 01:53:42;;;;;;;31.13;17.50;;;;;;;;;;5053616;28;20189;-64
2022/03/30 01:56:08;;;;;;;32.93;18.27;;;;;;;;;;5035793;28;20619;-64
2022/03/30 01:58:34;;;;;;;29.70;17.27;;;;;;;;;;5052974;28;20213;-64
2022/03/30 02:01:00;;;;;;;33.27;18.37;;;;;;;;;;5053497;28;20232;-64
2022/03/30 02:03:27;;;;;;;35.47;18.43;;;;;;;;;;5053958;28;20213;-64
2022/03/30 02:05:54;;;;;;;28.37;16.97;;;;;;;;;;5035865;28;20583;-64
2022/03/30 02:08:20;;;;;;;35.13;17.23;;;;;;;;;;5053590;28;20171;-64
2022/03/30 02:10:46;;;;;;;31.33;18.57;;;;;;;;;;5053497;28;20197;-64
2022/03/30 02:13:12;;;;;;;35.97;19.70;;;;;;;;;;5035520;28;20264;-64
2022/03/30 02:15:38;;;;;;;34.60;17.87;;;;;;;;;;5053390;28;20202;-64
2022/03/30 02:18:07;;;;;;;32.47;19.83;;;;;;;;;;5035829;28;20182;-64
2022/03/30 02:20:34;;;;;;;29.77;18.40;;;;;;;;;;5053528;28;20265;-65
2022/03/30 02:23:00;;;;;;;32.47;18.20;;;;;;;;;;5053054;28;20202;-64
2022/03/30 02:25:26;;;;;;;29.47;18.17;;;;;;;;;;5052904;28;20574;-64
2022/03/30 02:27:52;;;;;;;32.90;18.73;;;;;;;;;;5053320;28;20205;-64
2022/03/30 02:30:19;;;;;;;37.27;19.50;;;;;;;;;;5053035;28;20579;-66
2022/03/30 02:32:47;;;;;;;29.70;18.67;;;;;;;;;;5053137;28;20171;-66
2022/03/30 02:35:13;;;;;;;33.47;18.10;;;;;;;;;;5053200;28;20233;-66
2022/03/30 02:37:39;;;;;;;31.00;18.97;;;;;;;;;;5053333;28;20175;-66
2022/03/30 02:40:05;;;;;;;37.80;20.17;;;;;;;;;;5035242;28;20189;-66
2022/03/30 02:42:31;;;;;;;31.40;19.00;;;;;;;;;;5034947;28;20704;-66
2022/03/30 02:44:57;;;;;;;33.40;18.70;;;;;;;;;;5053149;28;20179;-66
2022/03/30 02:50:08;;;;;;;30.30;18.50;;;;;;;;;;5053301;28;20630;-66
2022/03/30 02:52:35;;;;;;;28.30;18.07;;;;;;;;;;5054755;28;20190;-66
2022/03/30 02:55:00;;;;;;;35.07;18.77;;;;;;;;;;5038989;28;20247;-66
2022/03/30 02:57:26;;;;;;;35.50;19.07;;;;;;;;;;5040131;28;20210;-66
2022/03/30 02:59:52;;;;;;;34.07;19.60;;;;;;;;;;5062260;28;20186;-66
2022/03/30 03:02:18;;;;;;;36.00;19.13;;;;;;;;;;5061222;28;20206;-66
2022/03/30 03:04:44;;;;;;;34.93;19.23;;;;;;;;;;5061034;28;20205;-66
2022/03/30 03:07:10;;;;;;;33.70;19.10;;;;;;;;;;5039777;28;20183;-66
2022/03/30 03:09:36;;;;;;;36.40;19.57;;;;;;;;;;5039004;28;20228;-66
2022/03/30 03:12:02;;;;;;;38.17;19.87;;;;;;;;;;5057793;28;20182;-66
2022/03/30 03:14:28;;;;;;;38.73;20.27;;;;;;;;;;5057255;28;20185;-66
2022/03/30 03:16:54;;;;;;;34.07;20.33;;;;;;;;;;5056759;28;20198;-66
2022/03/30 03:19:20;;;;;;;33.60;20.20;;;;;;;;;;5039001;28;20356;-66
2022/03/30 03:21:46;;;;;;;33.33;18.10;;;;;;;;;;5057325;28;20178;-66
2022/03/30 03:24:12;;;;;;;40.73;20.33;;;;;;;;;;5061365;28;20236;-66
2022/03/30 03:26:38;;;;;;;32.93;19.40;;;;;;;;;;5043524;28;20206;-66
2022/03/30 03:29:04;;;;;;;33.83;18.43;;;;;;;;;;5045007;28;20719;-66
2022/03/30 03:31:30;;;;;;;33.53;19.83;;;;;;;;;;5063139;28;20253;-66
2022/03/30 03:33:56;;;;;;;31.37;18.83;;;;;;;;;;5061238;28;20178;-66
2022/03/30 03:36:22;;;;;;;31.60;18.27;;;;;;;;;;5043165;28;20209;-66
2022/03/30 03:38:48;;;;;;;33.03;16.93;;;;;;;;;;5043288;28;20186;-66
2022/03/30 03:41:15;;;;;;;31.80;17.87;;;;;;;;;;5058618;28;20265;-66
2022/03/30 03:43:40;;;;;;;30.23;18.00;;;;;;;;;;5056692;28;20198;-67
2022/03/30 03:46:06;;;;;;;34.27;19.40;;;;;;;;;;5056202;28;20285;-67
2022/03/30 03:48:33;;;;;;;38.73;20.30;;;;;;;;;;5056027;28;20174;-66
2022/03/30 03:50:59;;;;;;;37.80;19.57;;;;;;;;;;5056434;28;20175;-66
2022/03/30 03:53:25;;;;;;;37.83;19.77;;;;;;;;;;5037718;28;20193;-66
2022/03/30 03:55:51;;;;;;;38.43;20.20;;;;;;;;;;5056205;28;20677;-66
2022/03/30 03:58:17;;;;;;;40.73;20.70;;;;;;;;;;5055627;28;20187;-66
2022/03/30 04:00:43;;;;;;;31.67;19.47;;;;;;;;;;5055744;28;20192;-66
2022/03/30 04:03:09;;;;;;;33.60;19.33;;;;;;;;;;5037640;28;20206;-67
2022/03/30 04:05:35;;;;;;;32.30;19.23;;;;;;;;;;5055498;28;20205;-66
2022/03/30 04:08:01;;;;;;;31.57;19.33;;;;;;;;;;5055423;28;20186;-67
2022/03/30 04:10:27;;;;;;;32.80;19.23;;;;;;;;;;5037684;28;20174;-66
2022/03/30 04:12:52;;;;;;;35.63;19.37;;;;;;;;;;5055663;28;20189;-67
2022/03/30 04:15:18;;;;;;;35.13;19.17;;;;;;;;;;5055848;28;20670;-66
2022/03/30 04:17:45;;;;;;;33.93;19.80;;;;;;;;;;5055463;28;20228;-66
2022/03/30 04:20:12;;;;;;;41.70;21.10;;;;;;;;;;5036883;28;20196;-66
2022/03/30 04:22:39;;;;;;;35.70;20.40;;;;;;;;;;5055268;28;20207;-66
2022/03/30 04:25:05;;;;;;;33.63;19.90;;;;;;;;;;5037173;28;20575;-67
2022/03/30 04:27:31;;;;;;;38.03;21.33;;;;;;;;;;5055136;28;20183;-67
2022/03/30 04:29:57;;;;;;;45.40;20.80;;;;;;;;;;5055630;28;20596;-67
2022/03/30 04:32:23;;;;;;;37.07;20.60;;;;;;;;;;5037105;28;20558;-66
2022/03/30 04:34:49;;;;;;;41.57;20.70;;;;;;;;;;5036991;28;20255;-66
2022/03/30 04:37:15;;;;;;;32.73;21.13;;;;;;;;;;5055053;28;20190;-66
2022/03/30 04:39:41;;;;;;;40.63;20.57;;;;;;;;;;5054903;28;20178;-67
2022/03/30 04:42:07;;;;;;;36.27;19.63;;;;;;;;;;5054686;28;20209;-66
2022/03/30 04:44:33;;;;;;;43.13;21.53;;;;;;;;;;5055381;28;20170;-66
2022/03/30 04:46:59;;;;;;;40.17;22.67;;;;;;;;;;5054710;28;20713;-67
2022/03/30 04:49:25;;;;;;;37.57;21.07;;;;;;;;;;5055015;28;20684;-66
2022/03/30 04:51:51;;;;;;;41.90;21.63;;;;;;;;;;5036870;28;20273;-66
2022/03/30 04:54:18;;;;;;;37.57;20.93;;;;;;;;;;5054654;28;20232;-66
2022/03/30 04:56:45;;;;;;;38.47;22.13;;;;;;;;;;5054566;28;20198;-66
2022/03/30 04:59:11;;;;;;;35.37;21.13;;;;;;;;;;5054821;28;20543;-66
2022/03/30 05:01:37;;;;;;;40.13;22.00;;;;;;;;;;5054431;28;20655;-66
2022/03/30 05:04:03;;;;;;;38.93;22.60;;;;;;;;;;5054396;28;20206;-66
2022/03/30 05:06:29;;;;;;;43.03;21.97;;;;;;;;;;5036434;28;20199;-66
2022/03/30 05:08:55;;;;;;;39.87;22.63;;;;;;;;;;5054419;28;20174;-66
2022/03/30 05:11:21;;;;;;;41.63;22.10;;;;;;;;;;5054371;28;20563;-66
2022/03/30 05:13:48;;;;;;;42.00;22.83;;;;;;;;;;5054324;28;20182;-66
2022/03/30 05:16:15;;;;;;;53.80;22.47;;;;;;;;;;5036733;28;20205;-66
2022/03/30 05:18:41;;;;;;;39.57;22.00;;;;;;;;;;5036402;28;20218;-66
2022/03/30 05:21:07;;;;;;;42.73;24.10;;;;;;;;;;5036616;28;20277;-69
2022/03/30 05:23:36;;;;;;;43.43;23.07;;;;;;;;;;5054507;28;20202;-66
2022/03/30 05:26:02;;;;;;;38.93;21.80;;;;;;;;;;5054197;28;20214;-66
2022/03/30 05:28:28;;;;;;;38.37;21.13;;;;;;;;;;5036510;28;20209;-66
2022/03/30 05:30:54;;;;;;;39.30;23.00;;;;;;;;;;5054770;28;20196;-66
2022/03/30 05:33:20;;;;;;;44.77;22.57;;;;;;;;;;5053131;28;20632;-66
2022/03/30 05:35:48;;;;;;;43.30;22.60;;;;;;;;;;5053919;28;20666;-66
2022/03/30 05:38:14;;;;;;;38.23;23.90;;;;;;;;;;5054390;28;20182;-67
2022/03/30 05:40:41;;;;;;;38.60;22.60;;;;;;;;;;5036135;28;20638;-66
2022/03/30 05:43:07;;;;;;;45.30;23.30;;;;;;;;;;5054200;28;20549;-67
2022/03/30 05:45:33;;;;;;;45.43;23.70;;;;;;;;;;5053867;28;20313;-66
2022/03/30 05:47:59;;;;;;;45.27;23.90;;;;;;;;;;5054301;28;20186;-66
2022/03/30 05:50:25;;;;;;;42.60;24.23;;;;;;;;;;5053945;28;20175;-66
2022/03/30 05:52:51;;;;;;;40.17;24.00;;;;;;;;;;5053574;28;20268;-66
2022/03/30 05:55:17;;;;;;;45.63;23.70;;;;;;;;;;5053896;28;20579;-66
2022/03/30 05:57:43;;;;;;;43.03;24.03;;;;;;;;;;5053897;28;20182;-66
2022/03/30 06:00:10;;;;;;;38.33;24.03;;;;;;;;;;5053564;28;20182;-66
2022/03/30 06:02:37;;;;;;;43.73;23.80;;;;;;;;;;5053375;28;20674;-66
2022/03/30 06:05:03;;;;;;;36.60;20.83;;;;;;;;;;5054310;28;20198;-66
2022/03/30 06:07:29;;;;;;;36.37;20.43;;;;;;;;;;5054328;28;20706;-66
2022/03/30 06:09:55;;;;;;;35.40;21.37;;;;;;;;;;5054734;28;20213;-64
2022/03/30 06:12:24;;;;;;;37.97;21.03;;;;;;;;;;5036924;28;20205;-66
2022/03/30 06:14:51;;;;;;;38.60;20.17;;;;;;;;;;5054053;28;20182;-66
2022/03/30 06:17:18;;;;;;;33.47;20.73;;;;;;;;;;5035749;28;20182;-66
2022/03/30 06:19:45;;;;;;;34.47;20.13;;;;;;;;;;5053493;28;20182;-66
2022/03/30 06:22:11;;;;;;;39.23;21.43;;;;;;;;;;5035664;28;20256;-66
2022/03/30 06:24:42;;;;;;;35.70;19.97;;;;;;;;;;5035963;28;20182;-66
2022/03/30 06:27:09;;;;;;;35.27;20.13;;;;;;;;;;5053926;28;20163;-66
2022/03/30 06:29:36;;;;;;;33.63;20.40;;;;;;;;;;5053490;28;20181;-66
2022/03/30 06:32:02;;;;;;;32.93;20.10;;;;;;;;;;5035270;28;20670;-67
2022/03/30 06:34:28;;;;;;;33.90;20.40;;;;;;;;;;5035417;28;20205;-64
2022/03/30 06:36:54;;;;;;;31.77;18.53;;;;;;;;;;5053389;28;20212;-64
2022/03/30 06:39:20;;;;;;;35.83;20.50;;;;;;;;;;5035291;28;20178;-64
2022/03/30 06:41:48;;;;;;;32.17;19.40;;;;;;;;;;5053196;28;20522;-64
2022/03/30 06:44:14;;;;;;;27.57;18.50;;;;;;;;;;5036916;28;20268;-64
2022/03/30 06:46:40;;;;;;;28.63;17.80;;;;;;;;;;5057241;28;20198;-64
2022/03/30 06:49:07;;;;;;;30.90;17.77;;;;;;;;;;5057106;28;20178;-65
2022/03/30 06:51:33;;;;;;;30.10;17.33;;;;;;;;;;5039524;28;20186;-64
2022/03/30 06:53:59;;;;;;;27.83;18.50;;;;;;;;;;5038908;28;20209;-64
2022/03/30 06:56:26;;;;;;;33.47;19.60;;;;;;;;;;5038922;28;20213;-65
2022/03/30 06:58:52;;;;;;;32.87;18.90;;;;;;;;;;5039709;28;20183;-64
2022/03/30 07:01:18;;;;;;;27.97;19.23;;;;;;;;;;5056692;28;20178;-64
2022/03/30 07:03:44;;;;;;;35.07;18.33;;;;;;;;;;5038653;28;20293;-64
2022/03/30 07:06:10;;;;;;;27.77;17.93;;;;;;;;;;5038808;28;20695;-64
2022/03/30 07:11:22;;;;;;;33.90;19.63;;;;;;;;;;5056591;28;20544;-67
2022/03/30 07:13:48;;;;;;;34.30;18.37;;;;;;;;;;5057128;28;20175;-67
2022/03/30 07:16:14;;;;;;;32.07;19.47;;;;;;;;;;5056337;28;20209;-64
2022/03/30 07:18:40;;;;;;;34.17;18.70;;;;;;;;;;5038385;28;20178;-64
2022/03/30 07:21:06;;;;;;;32.80;19.23;;;;;;;;;;5038634;28;20248;-65
2022/03/30 07:23:32;;;;;;;33.10;18.47;;;;;;;;;;5056633;28;20213;-65
2022/03/30 07:26:00;;;;;;;33.07;19.03;;;;;;;;;;5038336;28;20210;-65
2022/03/30 07:28:27;;;;;;;27.23;17.50;;;;;;;;;;5038513;28;20557;-65
2022/03/30 07:30:53;;;;;;;28.13;17.33;;;;;;;;;;5056308;28;20701;-65
2022/03/30 07:33:20;;;;;;;34.83;17.47;;;;;;;;;;5038377;28;20183;-65
2022/03/30 07:35:47;;;;;;;31.57;16.90;;;;;;;;;;5038215;28;20688;-65
2022/03/30 07:38:17;;;;;;;26.73;17.53;;;;;;;;;;5056074;28;20217;-65
2022/03/30 07:40:45;;;;;;;35.43;18.10;;;;;;;;;;5038239;28;20185;-65
2022/03/30 07:43:12;;;;;;;30.10;17.03;;;;;;;;;;5038065;28;20229;-65
2022/03/30 07:45:38;;;;;;;26.57;17.17;;;;;;;;;;5038539;28;20202;-66
2022/03/30 07:48:04;;;;;;;26.03;15.80;;;;;;;;;;5038199;28;20217;-65
2022/03/30 07:50:30;;;;;;;26.10;15.47;;;;;;;;;;5038033;28;20273;-65
2022/03/30 07:52:56;;;;;;;30.37;15.63;;;;;;;;;;5055965;28;20185;-65
2022/03/30 07:55:23;;;;;;;26.50;16.27;;;;;;;;;;5036764;28;20685;-65
2022/03/30 07:57:49;;;;;;;23.07;15.27;;;;;;;;;;5055789;28;20179;-67
2022/03/30 08:00:16;;;;;;;26.30;16.67;;;;;;;;;;5055933;28;20224;-65
2022/03/30 08:02:43;;;;;;;25.90;16.67;;;;;;;;;;5055483;28;20205;-65
2022/03/30 08:05:10;;;;;;;23.30;14.27;;;;;;;;;;5037789;28;20240;-65
2022/03/30 08:07:37;;;;;;;22.73;14.53;;;;;;;;;;5037745;28;20609;-65
2022/03/30 08:10:03;;;;;;;24.60;15.00;;;;;;;;;;5055693;28;20174;-65
2022/03/30 08:12:29;;;;;;;24.67;15.03;;;;;;;;;;5055758;28;20292;-67
2022/03/30 08:14:55;;;;;;;28.77;16.13;;;;;;;;;;5055146;28;20187;-64
2022/03/30 08:17:21;;;;;;;26.67;14.90;;;;;;;;;;5055138;28;20233;-65
2022/03/30 08:19:47;;;;;;;26.60;15.53;;;;;;;;;;5055000;28;20206;-65
2022/03/30 08:22:26;;;;;;;26.50;15.13;;;;;;;;;;5054790;28;20210;-65
2022/03/30 08:25:00;;;;;;;25.17;14.77;;;;;;;;;;5054752;28;20269;-64
2022/03/30 08:27:28;;;;;;;24.83;13.43;;;;;;;;;;5037234;28;20220;-65
2022/03/30 08:29:54;;;;;;;19.47;12.90;;;;;;;;;;5054831;28;20654;-65
2022/03/30 08:32:21;;;;;;;20.93;12.27;;;;;;;;;;5054826;28;20189;-65
2022/03/30 08:34:47;;;;;;;23.70;12.00;;;;;;;;;;5054907;28;20190;-64
2022/03/30 08:37:13;;;;;;;24.33;12.33;;;;;;;;;;5036863;28;20182;-65
2022/03/30 08:39:40;;;;;;;24.03;11.23;;;;;;;;;;5036808;28;20188;-65
2022/03/30 08:42:06;;;;;;;19.50;12.40;;;;;;;;;;5036818;28;20607;-65
2022/03/30 08:44:33;;;;;;;20.07;12.33;;;;;;;;;;5055264;28;20209;-67
2022/03/30 08:47:00;;;;;;;24.37;12.83;;;;;;;;;;5054451;28;20197;-65
2022/03/30 08:49:27;;;;;;;18.60;9.50;;;;;;;;;;5036598;28;20594;-66
2022/03/30 08:51:54;;;;;;;15.53;10.20;;;;;;;;;;5059627;28;20170;-67
2022/03/30 08:54:21;;;;;;;18.77;9.70;;;;;;;;;;5061734;28;20196;-67
2022/03/30 08:56:47;;;;;;;21.10;11.67;;;;;;;;;;5061558;28;20194;-67
2022/03/30 08:59:20;;;;;;;18.87;12.17;;;;;;;;;;5060598;28;20179;-66
2022/03/30 09:01:47;;;;;;;19.37;11.07;;;;;;;;;;5054667;28;20163;-66
2022/03/30 09:04:14;;;;;;;19.60;11.33;;;;;;;;;;5070534;22;20289;-61
2022/03/30 09:06:42;;;;;;;20.50;12.07;;;;;;;;;;5037279;28;20654;-61
2022/03/30 09:09:08;;;;;;;20.13;12.63;;;;;;;;;;5055166;28;20181;-61
2022/03/30 09:11:52;;;;;;;17.00;9.03;;;;;;;;;;5055939;28;20182;-60
2022/03/30 09:14:19;;;;;;;19.73;11.60;;;;;;;;;;5037090;28;20255;-62
2022/03/30 09:16:49;;;;;;;18.90;10.20;;;;;;;;;;5054933;28;20249;-62
2022/03/30 09:19:17;;;;;;;18.80;12.80;;;;;;;;;;5037274;28;20194;-62
2022/03/30 09:21:43;;;;;;;18.60;10.67;;;;;;;;;;5055576;28;20182;-61
2022/03/30 09:24:09;;;;;;;19.80;13.13;;;;;;;;;;5038296;28;20214;-62
2022/03/30 09:26:35;;;;;;;21.73;12.23;;;;;;;;;;5057409;28;20170;-62
2022/03/30 09:29:02;;;;;;;20.43;12.50;;;;;;;;;;5039649;28;20221;-62
2022/03/30 09:31:30;;;;;;;20.80;11.83;;;;;;;;;;5056792;28;20205;-63
2022/03/30 09:33:58;;;;;;;22.60;12.97;;;;;;;;;;5040444;28;20194;-63
2022/03/30 09:36:28;;;;;;;29.13;13.37;;;;;;;;;;5036947;28;20593;-63
2022/03/30 09:38:54;;;;;;;17.93;11.40;;;;;;;;;;5054597;28;20171;-62
2022/03/30 09:41:20;;;;;;;21.50;13.43;;;;;;;;;;5054520;28;20182;-63
2022/03/30 09:43:46;;;;;;;22.60;12.57;;;;;;;;;;5054374;28;20220;-62
2022/03/30 09:46:13;;;;;;;22.53;11.33;;;;;;;;;;5054515;28;20202;-63
2022/03/30 09:48:49;;;;;;;17.00;11.73;;;;;;;;;;5055126;28;20182;-63
2022/03/30 09:51:16;;;;;;;14.17;10.13;;;;;;;;;;5054865;28;20161;-63
2022/03/30 09:53:42;;;;;;;16.23;10.77;;;;;;;;;;5053816;28;20244;-62
2022/03/30 09:56:18;;;;;;;16.40;9.27;;;;;;;;;;5054902;28;20193;-60
2022/03/30 09:58:45;;;;;;;18.30;11.00;;;;;;;;;;5036243;28;20296;-62
2022/03/30 10:01:11;;;;;;;21.73;13.17;;;;;;;;;;5054446;28;20546;-62
2022/03/30 10:03:56;;;;;;;15.47;10.17;;;;;;;;;;5054137;28;20632;-62
2022/03/30 10:06:26;;;;;;;22.20;11.07;;;;;;;;;;5054427;28;20217;-62
2022/03/30 10:08:53;;;;;;;20.07;12.73;;;;;;;;;;5053971;28;20191;-62
2022/03/30 10:11:21;;;;;;;15.47;10.90;;;;;;;;;;5036260;28;20187;-62
2022/03/30 10:13:57;;;;;;;20.53;12.00;;;;;;;;;;5036008;28;20214;-63
2022/03/30 10:16:24;;;;;;;22.60;12.43;;;;;;;;;;5054539;28;20671;-61
2022/03/30 10:18:51;;;;;;;18.43;12.80;;;;;;;;;;5053384;28;20178;-63
2022/03/30 10:21:41;;;;;;;18.73;12.57;;;;;;;;;;5054091;28;20666;-63
2022/03/30 10:24:22;;;;;;;19.77;12.27;;;;;;;;;;5054408;28;20667;-63
2022/03/30 10:27:05;;;;;;;19.23;12.17;;;;;;;;;;5054563;28;20573;-63
2022/03/30 10:29:31;;;;;;;18.80;12.77;;;;;;;;;;5054489;28;20159;-62
2022/03/30 10:32:12;;;;;;;16.93;11.77;;;;;;;;;;5054267;28;20192;-64
2022/03/30 10:34:42;;;;;;;18.87;12.63;;;;;;;;;;5035647;28;20615;-63
2022/03/30 10:37:09;;;;;;;22.53;13.00;;;;;;;;;;5054344;28;20182;-63
2022/03/30 10:39:55;;;;;;;19.20;11.87;;;;;;;;;;5054303;28;20175;-63
2022/03/30 10:42:21;;;;;;;18.37;10.83;;;;;;;;;;5035533;28;20203;-63
2022/03/30 10:44:57;;;;;;;13.77;9.60;;;;;;;;;;5053749;28;20647;-63
2022/03/30 10:47:24;;;;;;;21.27;10.70;;;;;;;;;;5053655;28;20159;-63
2022/03/30 10:49:52;;;;;;;23.73;11.43;;;;;;;;;;5035942;28;20217;-62
2022/03/30 10:52:37;;;;;;;20.10;10.93;;;;;;;;;;5053752;28;20301;-63
2022/03/30 10:55:13;;;;;;;16.37;10.13;;;;;;;;;;5053636;28;20194;-62
2022/03/30 10:57:50;;;;;;;20.57;11.80;;;;;;;;;;5054227;28;20515;-63
2022/03/30 11:00:17;;;;;;;19.60;11.07;;;;;;;;;;5053675;28;20190;-63
2022/03/30 11:02:43;;;;;;;17.53;11.63;;;;;;;;;;5053761;28;20194;-63
2022/03/30 11:05:10;;;;;;;20.90;11.40;;;;;;;;;;5054101;28;20300;-63
2022/03/30 11:07:37;;;;;;;16.97;10.83;;;;;;;;;;5053838;28;20170;-62
2022/03/30 11:10:16;;;;;;;18.23;10.90;;;;;;;;;;5054362;28;20262;-62
2022/03/30 11:13:02;;;;;;;17.57;10.90;;;;;;;;;;5053978;28;20638;-62
2022/03/30 11:15:28;;;;;;;18.80;10.77;;;;;;;;;;5053759;28;20191;-62
2022/03/30 11:17:56;;;;;;;19.23;11.63;;;;;;;;;;5054128;28;20257;-62
2022/03/30 11:20:23;;;;;;;18.10;11.07;;;;;;;;;;5053394;28;20171;-63
2022/03/30 11:22:50;;;;;;;15.90;11.27;;;;;;;;;;5053479;28;20235;-63
2022/03/30 11:25:19;;;;;;;19.73;11.87;;;;;;;;;;5035639;28;20732;-63
2022/03/30 11:27:45;;;;;;;22.23;13.47;;;;;;;;;;5035864;28;20179;-63
2022/03/30 11:30:12;;;;;;;18.87;11.67;;;;;;;;;;5035383;28;20202;-62
2022/03/30 11:32:39;;;;;;;16.67;11.37;;;;;;;;;;5039032;28;20273;-63
2022/03/30 11:35:07;;;;;;;19.63;11.73;;;;;;;;;;5038929;28;20670;-63
2022/03/30 11:37:37;;;;;;;21.73;12.83;;;;;;;;;;5056416;28;20178;-64
2022/03/30 11:40:08;;;;;;;25.97;13.20;;;;;;;;;;5038274;28;20182;-63
2022/03/30 11:42:36;;;;;;;20.63;12.33;;;;;;;;;;5056369;28;20250;-64
2022/03/30 11:45:21;;;;;;;18.50;10.93;;;;;;;;;;5037996;28;20230;-64
2022/03/30 11:47:47;;;;;;;18.63;11.27;;;;;;;;;;5038301;28;20170;-63
2022/03/30 11:50:14;;;;;;;13.43;11.03;;;;;;;;;;5056389;28;20182;-64
2022/03/30 11:52:40;;;;;;;16.40;11.73;;;;;;;;;;5056583;28;20183;-64
2022/03/30 11:55:10;;;;;;;16.90;11.30;;;;;;;;;;5055979;28;20256;-63
2022/03/30 11:57:42;;;;;;;22.07;11.87;;;;;;;;;;5056046;28;20529;-63
2022/03/30 12:00:09;;;;;;;15.10;11.53;;;;;;;;;;5037746;28;20190;-64
2022/03/30 12:02:36;;;;;;;20.87;13.97;;;;;;;;;;5055682;28;20193;-64
2022/03/30 12:05:03;;;;;;;15.30;11.33;;;;;;;;;;5056828;28;20253;-64
2022/03/30 12:07:33;;;;;;;17.70;11.50;;;;;;;;;;5039869;28;20185;-64
2022/03/30 12:09:59;;;;;;;18.37;11.60;;;;;;;;;;5058519;28;20213;-64
2022/03/30 12:12:31;;;;;;;17.33;12.93;;;;;;;;;;5063144;28;20175;-64
2022/03/30 12:15:01;;;;;;;16.93;13.33;;;;;;;;;;5059538;28;20194;-64
2022/03/30 12:17:27;;;;;;;18.73;11.80;;;;;;;;;;5065289;28;20224;-64
2022/03/30 12:19:53;;;;;;;18.30;10.93;;;;;;;;;;5057175;28;20179;-64
2022/03/30 12:22:19;;;;;;;19.37;11.37;;;;;;;;;;5040249;28;20302;-64
2022/03/30 12:24:45;;;;;;;19.87;11.37;;;;;;;;;;5059440;28;20194;-64
2022/03/30 12:27:11;;;;;;;21.37;12.07;;;;;;;;;;5044043;28;20248;-64
2022/03/30 12:29:38;;;;;;;16.70;11.00;;;;;;;;;;5055527;28;20185;-64
2022/03/30 12:32:05;;;;;;;14.17;10.93;;;;;;;;;;5055449;28;20185;-64
2022/03/30 12:34:33;;;;;;;15.00;11.23;;;;;;;;;;5055180;28;20198;-64
2022/03/30 12:37:01;;;;;;;18.60;11.17;;;;;;;;;;5055534;28;20266;-64
2022/03/30 12:39:46;;;;;;;17.30;11.10;;;;;;;;;;5055373;28;20595;-64
2022/03/30 12:42:17;;;;;;;14.97;10.07;;;;;;;;;;5054516;28;20197;-63
2022/03/30 12:44:58;;;;;;;17.37;11.10;;;;;;;;;;5036899;28;20202;-63
2022/03/30 12:47:32;;;;;;;15.57;10.40;;;;;;;;;;5055033;28;20159;-63
2022/03/30 12:49:59;;;;;;;16.83;10.17;;;;;;;;;;5055104;28;20646;-64
2022/03/30 12:52:34;;;;;;;16.53;10.90;;;;;;;;;;5055148;28;20182;-63
2022/03/30 12:55:13;;;;;;;15.00;10.33;;;;;;;;;;5036949;28;20210;-64
2022/03/30 12:57:48;;;;;;;13.13;10.23;;;;;;;;;;5037048;28;20186;-64
2022/03/30 13:00:15;;;;;;;15.40;10.03;;;;;;;;;;5036598;28;20169;-63
2022/03/30 13:02:41;;;;;;;13.27;10.27;;;;;;;;;;5036917;28;20203;-63
2022/03/30 13:05:08;;;;;;;14.63;9.87;;;;;;;;;;5036931;28;20222;-63
2022/03/30 13:07:48;;;;;;;13.90;9.80;;;;;;;;;;5036888;28;20276;-62
2022/03/30 13:10:14;;;;;;;15.53;11.13;;;;;;;;;;5054889;28;20169;-63
2022/03/30 13:12:41;;;;;;;18.23;11.27;;;;;;;;;;5054751;28;20174;-64
2022/03/30 13:15:08;;;;;;;16.83;10.47;;;;;;;;;;5036700;28;20202;-64
2022/03/30 13:17:34;;;;;;;12.70;10.30;;;;;;;;;;5054317;28;20189;-64
2022/03/30 13:20:01;;;;;;;19.13;10.97;;;;;;;;;;5036541;28;20174;-64
2022/03/30 13:22:28;;;;;;;17.00;11.03;;;;;;;;;;5036485;28;20618;-64
2022/03/30 13:24:54;;;;;;;13.80;10.57;;;;;;;;;;5054102;28;20285;-64
2022/03/30 13:27:20;;;;;;;15.83;10.23;;;;;;;;;;5054294;28;20181;-64
2022/03/30 13:29:46;;;;;;;16.43;10.23;;;;;;;;;;5054236;28;20216;-64
2022/03/30 13:32:12;;;;;;;13.47;9.97;;;;;;;;;;5054454;28;20170;-64
2022/03/30 13:34:38;;;;;;;14.97;9.63;;;;;;;;;;5054307;28;20194;-64
2022/03/30 13:37:04;;;;;;;13.97;9.33;;;;;;;;;;5036394;28;20183;-64
2022/03/30 13:39:31;;;;;;;12.90;9.37;;;;;;;;;;5054166;28;20178;-64
2022/03/30 13:41:56;;;;;;;14.97;9.43;;;;;;;;;;5054119;28;20261;-64
2022/03/30 13:44:23;;;;;;;11.83;8.50;;;;;;;;;;5054434;28;20293;-64
2022/03/30 13:46:49;;;;;;;11.40;8.20;;;;;;;;;;5054521;28;20182;-64
2022/03/30 13:49:16;;;;;;;12.53;7.97;;;;;;;;;;5054149;28;20258;-63
2022/03/30 13:51:42;;;;;;;14.00;8.97;;;;;;;;;;5053725;28;20186;-64
2022/03/30 13:54:09;;;;;;;12.33;8.87;;;;;;;;;;5035406;28;20232;-63
2022/03/30 13:56:35;;;;;;;13.20;8.80;;;;;;;;;;5053674;28;20216;-64
2022/03/30 13:59:01;;;;;;;13.43;8.03;;;;;;;;;;5035840;28;20214;-63
2022/03/30 14:01:28;;;;;;;16.87;11.17;;;;;;;;;;5035848;28;20563;-64
2022/03/30 14:03:54;;;;;;;13.77;9.37;;;;;;;;;;5053573;28;20210;-64
2022/03/30 14:06:21;;;;;;;11.07;8.83;;;;;;;;;;5053938;28;20179;-64
2022/03/30 14:08:47;;;;;;;13.43;8.27;;;;;;;;;;5053380;28;20181;-64
2022/03/30 14:11:13;;;;;;;13.90;9.30;;;;;;;;;;5053690;28;20631;-64
2022/03/30 14:13:39;;;;;;;10.20;6.83;;;;;;;;;;5053431;28;20202;-64
2022/03/30 14:16:05;;;;;;;11.03;8.20;;;;;;;;;;5053518;28;20179;-64
2022/03/30 14:18:32;;;;;;;9.90;8.10;;;;;;;;;;5053312;28;20189;-64
2022/03/30 14:20:59;;;;;;;14.27;8.17;;;;;;;;;;5053656;28;20231;-64
2022/03/30 14:23:25;;;;;;;9.13;7.07;;;;;;;;;;5053533;28;20577;-64
2022/03/30 14:25:51;;;;;;;10.47;7.80;;;;;;;;;;5053835;28;20173;-64
2022/03/30 14:28:18;;;;;;;10.57;8.20;;;;;;;;;;5053436;28;20174;-64